sensor_id;sensor_type;location;lat;lon;timestamp;P1;durP1;ratioP1;P2;durP2;ratioP2
20306;SDS011;10312;52.434;13.206;2022-12-29T00:02:16;3.13;;;1.30;;
20306;SDS011;10312;52.434;13.206;2022-12-29T00:04:43;5.38;;;1.77;;
20306;SDS011;10312;52.434;13.206;2022-12-29T00:07:10;4.13;;;1.85;;
20306;SDS011;10312;52.434;13.206;2022-12-29T00:09:37;3.00;;;1.33;;
20306;SDS011;10312;52.434;13.206;2022-12-29T00:12:04;2.60;;;1.27;;
20306;SDS011;10312;52.434;13.206;2022-12-29T00:14:31;4.20;;;1.20;;
20306;SDS011;10312;52.434;13.206;2022-12-29T00:17:16;4.10;;;1.50;;
20306;SDS011;10312;52.434;13.206;2022-12-29T00:19:43;2.85;;;1.48;;
20306;SDS011;10312;52.434;13.206;2022-12-29T00:22:28;2.33;;;1.30;;
20306;SDS011;10312;52.434;13.206;2022-12-29T00:25:13;4.88;;;1.40;;
20306;SDS011;10312;52.434;13.206;2022-12-29T00:27:59;2.70;;;1.20;;
20306;SDS011;10312;52.434;13.206;2022-12-29T00:30:44;3.92;;;1.13;;
20306;SDS011;10312;52.434;13.206;2022-12-29T00:33:31;2.35;;;1.30;;
20306;SDS011;10312;52.434;13.206;2022-12-29T00:36:18;3.25;;;1.35;;
20306;SDS011;10312;52.434;13.206;2022-12-29T00:38:58;1.70;;;1.27;;
20306;SDS011;10312;52.434;13.206;2022-12-29T00:41:45;3.58;;;1.75;;
20306;SDS011;10312;52.434;13.206;2022-12-29T00:44:30;4.53;;;2.13;;
20306;SDS011;10312;52.434;13.206;2022-12-29T00:46:57;2.78;;;1.13;;
20306;SDS011;10312;52.434;13.206;2022-12-29T00:49:28;3.35;;;1.67;;
20306;SDS011;10312;52.434;13.206;2022-12-29T00:54:31;2.88;;;1.45;;
20306;SDS011;10312;52.434;13.206;2022-12-29T00:57:02;2.55;;;1.50;;
20306;SDS011;10312;52.434;13.206;2022-12-29T00:59:30;4.20;;;1.55;;
20306;SDS011;10312;52.434;13.206;2022-12-29T01:01:58;3.47;;;1.65;;
20306;SDS011;10312;52.434;13.206;2022-12-29T01:04:27;1.55;;;1.13;;
20306;SDS011;10312;52.434;13.206;2022-12-29T01:06:53;4.00;;;1.25;;
20306;SDS011;10312;52.434;13.206;2022-12-29T01:09:20;1.88;;;1.10;;
20306;SDS011;10312;52.434;13.206;2022-12-29T01:12:07;1.88;;;1.30;;
20306;SDS011;10312;52.434;13.206;2022-12-29T01:14:34;3.25;;;1.30;;
20306;SDS011;10312;52.434;13.206;2022-12-29T01:17:02;3.72;;;1.20;;
20306;SDS011;10312;52.434;13.206;2022-12-29T01:19:28;3.00;;;1.50;;
20306;SDS011;10312;52.434;13.206;2022-12-29T01:21:55;1.98;;;1.20;;
20306;SDS011;10312;52.434;13.206;2022-12-29T01:24:22;2.67;;;1.40;;
20306;SDS011;10312;52.434;13.206;2022-12-29T01:26:48;2.25;;;1.38;;
20306;SDS011;10312;52.434;13.206;2022-12-29T01:29:15;3.00;;;1.10;;
20306;SDS011;10312;52.434;13.206;2022-12-29T01:31:44;2.17;;;1.30;;
20306;SDS011;10312;52.434;13.206;2022-12-29T01:34:11;3.05;;;1.10;;
20306;SDS011;10312;52.434;13.206;2022-12-29T01:36:38;3.05;;;1.30;;
20306;SDS011;10312;52.434;13.206;2022-12-29T01:39:04;3.03;;;1.40;;
20306;SDS011;10312;52.434;13.206;2022-12-29T01:41:31;2.92;;;1.40;;
20306;SDS011;10312;52.434;13.206;2022-12-29T01:44:00;3.35;;;1.50;;
20306;SDS011;10312;52.434;13.206;2022-12-29T01:46:30;5.13;;;1.40;;
20306;SDS011;10312;52.434;13.206;2022-12-29T01:51:29;2.40;;;1.38;;
20306;SDS011;10312;52.434;13.206;2022-12-29T01:53:59;2.47;;;1.40;;
20306;SDS011;10312;52.434;13.206;2022-12-29T01:56:28;6.25;;;1.67;;
20306;SDS011;10312;52.434;13.206;2022-12-29T01:58:56;1.70;;;1.00;;
20306;SDS011;10312;52.434;13.206;2022-12-29T02:01:27;2.08;;;1.20;;
20306;SDS011;10312;52.434;13.206;2022-12-29T02:03:54;2.35;;;1.35;;
20306;SDS011;10312;52.434;13.206;2022-12-29T02:06:28;1.85;;;1.20;;
20306;SDS011;10312;52.434;13.206;2022-12-29T02:08:57;3.55;;;1.30;;
20306;SDS011;10312;52.434;13.206;2022-12-29T02:11:25;2.08;;;1.20;;
20306;SDS011;10312;52.434;13.206;2022-12-29T02:13:52;3.72;;;1.25;;
20306;SDS011;10312;52.434;13.206;2022-12-29T02:16:29;2.83;;;1.48;;
20306;SDS011;10312;52.434;13.206;2022-12-29T02:27:55;1.30;;;0.90;;
20306;SDS011;10312;52.434;13.206;2022-12-29T02:33:33;3.95;;;1.45;;
20306;SDS011;10312;52.434;13.206;2022-12-29T02:42:13;4.50;;;1.55;;
20306;SDS011;10312;52.434;13.206;2022-12-29T02:47:16;1.70;;;1.00;;
20306;SDS011;10312;52.434;13.206;2022-12-29T02:49:53;1.60;;;1.13;;
20306;SDS011;10312;52.434;13.206;2022-12-29T02:52:31;1.95;;;1.00;;
20306;SDS011;10312;52.434;13.206;2022-12-29T02:55:02;2.95;;;1.10;;
20306;SDS011;10312;52.434;13.206;2022-12-29T02:57:31;2.20;;;1.10;;
20306;SDS011;10312;52.434;13.206;2022-12-29T03:00:03;2.25;;;1.20;;
20306;SDS011;10312;52.434;13.206;2022-12-29T03:05:39;2.60;;;1.13;;
20306;SDS011;10312;52.434;13.206;2022-12-29T03:08:34;3.38;;;1.30;;
20306;SDS011;10312;52.434;13.206;2022-12-29T03:11:15;1.98;;;1.00;;
20306;SDS011;10312;52.434;13.206;2022-12-29T03:16:48;2.35;;;1.38;;
20306;SDS011;10312;52.434;13.206;2022-12-29T03:19:26;2.53;;;1.20;;
20306;SDS011;10312;52.434;13.206;2022-12-29T03:24:48;2.38;;;1.15;;
20306;SDS011;10312;52.434;13.206;2022-12-29T03:27:19;2.28;;;1.13;;
20306;SDS011;10312;52.434;13.206;2022-12-29T03:29:50;2.33;;;1.08;;
20306;SDS011;10312;52.434;13.206;2022-12-29T03:32:23;6.85;;;1.23;;
20306;SDS011;10312;52.434;13.206;2022-12-29T03:34:53;3.15;;;1.30;;
20306;SDS011;10312;52.434;13.206;2022-12-29T03:37:21;2.38;;;1.20;;
20306;SDS011;10312;52.434;13.206;2022-12-29T03:39:51;1.98;;;1.15;;
20306;SDS011;10312;52.434;13.206;2022-12-29T03:42:21;3.58;;;1.00;;
20306;SDS011;10312;52.434;13.206;2022-12-29T03:44:52;2.33;;;1.20;;
20306;SDS011;10312;52.434;13.206;2022-12-29T03:47:20;2.45;;;1.10;;
20306;SDS011;10312;52.434;13.206;2022-12-29T03:49:47;2.78;;;1.10;;
20306;SDS011;10312;52.434;13.206;2022-12-29T03:52:14;3.47;;;1.15;;
20306;SDS011;10312;52.434;13.206;2022-12-29T03:54:43;3.28;;;1.13;;
20306;SDS011;10312;52.434;13.206;2022-12-29T03:57:11;2.13;;;1.20;;
20306;SDS011;10312;52.434;13.206;2022-12-29T03:59:52;1.65;;;0.80;;
20306;SDS011;10312;52.434;13.206;2022-12-29T04:02:18;2.17;;;1.23;;
20306;SDS011;10312;52.434;13.206;2022-12-29T04:04:46;2.45;;;1.08;;
20306;SDS011;10312;52.434;13.206;2022-12-29T04:07:12;1.67;;;1.00;;
20306;SDS011;10312;52.434;13.206;2022-12-29T04:09:40;2.17;;;1.23;;
20306;SDS011;10312;52.434;13.206;2022-12-29T04:12:10;1.85;;;0.90;;
20306;SDS011;10312;52.434;13.206;2022-12-29T04:14:37;1.70;;;1.02;;
20306;SDS011;10312;52.434;13.206;2022-12-29T04:17:04;2.00;;;1.02;;
20306;SDS011;10312;52.434;13.206;2022-12-29T04:19:31;1.30;;;0.90;;
20306;SDS011;10312;52.434;13.206;2022-12-29T04:21:59;3.20;;;1.20;;
20306;SDS011;10312;52.434;13.206;2022-12-29T04:24:27;4.95;;;1.00;;
20306;SDS011;10312;52.434;13.206;2022-12-29T04:26:53;3.55;;;1.25;;
20306;SDS011;10312;52.434;13.206;2022-12-29T04:29:40;2.20;;;1.00;;
20306;SDS011;10312;52.434;13.206;2022-12-29T04:32:16;2.50;;;0.95;;
20306;SDS011;10312;52.434;13.206;2022-12-29T04:34:47;2.90;;;1.15;;
20306;SDS011;10312;52.434;13.206;2022-12-29T04:37:14;2.50;;;1.42;;
20306;SDS011;10312;52.434;13.206;2022-12-29T04:39:41;2.83;;;1.13;;
20306;SDS011;10312;52.434;13.206;2022-12-29T04:42:08;3.08;;;1.02;;
20306;SDS011;10312;52.434;13.206;2022-12-29T04:44:35;2.28;;;1.30;;
20306;SDS011;10312;52.434;13.206;2022-12-29T04:47:13;2.33;;;1.30;;
20306;SDS011;10312;52.434;13.206;2022-12-29T04:49:53;2.85;;;1.42;;
20306;SDS011;10312;52.434;13.206;2022-12-29T04:52:41;6.05;;;2.40;;
20306;SDS011;10312;52.434;13.206;2022-12-29T04:55:09;4.65;;;2.08;;
20306;SDS011;10312;52.434;13.206;2022-12-29T04:57:36;5.47;;;1.80;;
20306;SDS011;10312;52.434;13.206;2022-12-29T05:00:03;3.15;;;1.58;;
20306;SDS011;10312;52.434;13.206;2022-12-29T05:02:30;2.47;;;1.27;;
20306;SDS011;10312;52.434;13.206;2022-12-29T05:04:57;3.33;;;1.20;;
20306;SDS011;10312;52.434;13.206;2022-12-29T05:07:25;2.17;;;1.42;;
20306;SDS011;10312;52.434;13.206;2022-12-29T05:09:53;2.45;;;1.33;;
20306;SDS011;10312;52.434;13.206;2022-12-29T05:12:19;2.63;;;1.10;;
20306;SDS011;10312;52.434;13.206;2022-12-29T05:14:57;2.70;;;1.15;;
20306;SDS011;10312;52.434;13.206;2022-12-29T05:17:24;2.03;;;1.05;;
20306;SDS011;10312;52.434;13.206;2022-12-29T05:19:51;3.15;;;1.35;;
20306;SDS011;10312;52.434;13.206;2022-12-29T05:22:18;2.30;;;1.40;;
20306;SDS011;10312;52.434;13.206;2022-12-29T05:24:45;2.50;;;1.10;;
20306;SDS011;10312;52.434;13.206;2022-12-29T05:27:12;2.53;;;1.10;;
20306;SDS011;10312;52.434;13.206;2022-12-29T05:30:04;2.30;;;1.10;;
20306;SDS011;10312;52.434;13.206;2022-12-29T05:32:33;3.10;;;1.20;;
20306;SDS011;10312;52.434;13.206;2022-12-29T05:34:59;2.08;;;1.15;;
20306;SDS011;10312;52.434;13.206;2022-12-29T05:37:27;4.47;;;1.88;;
20306;SDS011;10312;52.434;13.206;2022-12-29T05:39:53;5.45;;;1.15;;
20306;SDS011;10312;52.434;13.206;2022-12-29T05:42:20;3.05;;;1.10;;
20306;SDS011;10312;52.434;13.206;2022-12-29T05:44:51;4.15;;;1.30;;
20306;SDS011;10312;52.434;13.206;2022-12-29T05:47:31;3.20;;;1.10;;
20306;SDS011;10312;52.434;13.206;2022-12-29T05:50:09;3.15;;;1.40;;
20306;SDS011;10312;52.434;13.206;2022-12-29T05:52:54;2.25;;;1.30;;
20306;SDS011;10312;52.434;13.206;2022-12-29T05:55:21;2.15;;;1.10;;
20306;SDS011;10312;52.434;13.206;2022-12-29T05:57:51;2.45;;;1.25;;
20306;SDS011;10312;52.434;13.206;2022-12-29T06:00:17;2.30;;;1.10;;
20306;SDS011;10312;52.434;13.206;2022-12-29T06:02:45;2.75;;;1.05;;
20306;SDS011;10312;52.434;13.206;2022-12-29T06:05:14;3.75;;;1.08;;
20306;SDS011;10312;52.434;13.206;2022-12-29T06:07:40;2.90;;;1.10;;
20306;SDS011;10312;52.434;13.206;2022-12-29T06:10:07;1.40;;;0.80;;
20306;SDS011;10312;52.434;13.206;2022-12-29T06:12:54;2.85;;;1.15;;
20306;SDS011;10312;52.434;13.206;2022-12-29T06:15:21;2.63;;;1.30;;
20306;SDS011;10312;52.434;13.206;2022-12-29T06:17:49;1.92;;;1.20;;
20306;SDS011;10312;52.434;13.206;2022-12-29T06:20:16;2.15;;;1.10;;
20306;SDS011;10312;52.434;13.206;2022-12-29T06:22:43;2.22;;;1.10;;
20306;SDS011;10312;52.434;13.206;2022-12-29T06:25:10;1.98;;;1.17;;
20306;SDS011;10312;52.434;13.206;2022-12-29T06:27:37;1.85;;;1.00;;
20306;SDS011;10312;52.434;13.206;2022-12-29T06:30:04;1.65;;;0.90;;
20306;SDS011;10312;52.434;13.206;2022-12-29T06:32:31;1.98;;;0.95;;
20306;SDS011;10312;52.434;13.206;2022-12-29T06:35:04;3.20;;;1.00;;
20306;SDS011;10312;52.434;13.206;2022-12-29T06:37:36;2.20;;;1.15;;
20306;SDS011;10312;52.434;13.206;2022-12-29T06:40:03;2.60;;;1.10;;
20306;SDS011;10312;52.434;13.206;2022-12-29T06:42:41;2.13;;;1.20;;
20306;SDS011;10312;52.434;13.206;2022-12-29T06:45:28;2.35;;;0.88;;
20306;SDS011;10312;52.434;13.206;2022-12-29T06:47:55;1.00;;;0.82;;
20306;SDS011;10312;52.434;13.206;2022-12-29T06:50:22;3.30;;;0.90;;
20306;SDS011;10312;52.434;13.206;2022-12-29T06:52:49;1.15;;;0.73;;
20306;SDS011;10312;52.434;13.206;2022-12-29T06:55:15;3.28;;;1.10;;
20306;SDS011;10312;52.434;13.206;2022-12-29T06:57:42;1.88;;;1.00;;
20306;SDS011;10312;52.434;13.206;2022-12-29T07:00:09;2.53;;;0.98;;
20306;SDS011;10312;52.434;13.206;2022-12-29T07:02:36;2.05;;;0.75;;
20306;SDS011;10312;52.434;13.206;2022-12-29T07:05:03;3.97;;;0.90;;
20306;SDS011;10312;52.434;13.206;2022-12-29T07:07:29;1.88;;;0.98;;
20306;SDS011;10312;52.434;13.206;2022-12-29T07:09:56;1.10;;;0.77;;
20306;SDS011;10312;52.434;13.206;2022-12-29T07:12:23;1.35;;;0.88;;
20306;SDS011;10312;52.434;13.206;2022-12-29T07:14:49;2.75;;;1.05;;
20306;SDS011;10312;52.434;13.206;2022-12-29T07:17:16;3.53;;;1.23;;
20306;SDS011;10312;52.434;13.206;2022-12-29T07:19:43;1.95;;;1.15;;
20306;SDS011;10312;52.434;13.206;2022-12-29T07:22:10;2.70;;;0.80;;
20306;SDS011;10312;52.434;13.206;2022-12-29T07:24:37;1.55;;;0.80;;
20306;SDS011;10312;52.434;13.206;2022-12-29T07:27:04;1.48;;;0.80;;
20306;SDS011;10312;52.434;13.206;2022-12-29T07:29:34;1.60;;;0.88;;
20306;SDS011;10312;52.434;13.206;2022-12-29T07:32:00;1.50;;;1.10;;
20306;SDS011;10312;52.434;13.206;2022-12-29T07:34:27;2.22;;;0.70;;
20306;SDS011;10312;52.434;13.206;2022-12-29T07:36:54;2.70;;;1.15;;
20306;SDS011;10312;52.434;13.206;2022-12-29T07:39:20;2.70;;;0.88;;
20306;SDS011;10312;52.434;13.206;2022-12-29T07:41:47;1.63;;;1.10;;
20306;SDS011;10312;52.434;13.206;2022-12-29T07:44:18;6.40;;;1.52;;
20306;SDS011;10312;52.434;13.206;2022-12-29T07:46:58;1.77;;;1.08;;
20306;SDS011;10312;52.434;13.206;2022-12-29T07:49:25;1.83;;;1.15;;
20306;SDS011;10312;52.434;13.206;2022-12-29T07:51:52;2.08;;;0.80;;
20306;SDS011;10312;52.434;13.206;2022-12-29T07:54:19;2.05;;;0.70;;
20306;SDS011;10312;52.434;13.206;2022-12-29T07:56:46;1.67;;;0.82;;
20306;SDS011;10312;52.434;13.206;2022-12-29T07:59:12;2.50;;;1.10;;
20306;SDS011;10312;52.434;13.206;2022-12-29T08:01:39;1.60;;;1.05;;
20306;SDS011;10312;52.434;13.206;2022-12-29T08:04:06;1.40;;;0.80;;
20306;SDS011;10312;52.434;13.206;2022-12-29T08:06:33;2.10;;;1.13;;
20306;SDS011;10312;52.434;13.206;2022-12-29T08:09:00;1.42;;;0.80;;
20306;SDS011;10312;52.434;13.206;2022-12-29T08:11:38;1.75;;;0.88;;
20306;SDS011;10312;52.434;13.206;2022-12-29T08:14:06;1.52;;;0.85;;
20306;SDS011;10312;52.434;13.206;2022-12-29T08:16:33;2.75;;;0.88;;
20306;SDS011;10312;52.434;13.206;2022-12-29T08:19:00;1.40;;;0.80;;
20306;SDS011;10312;52.434;13.206;2022-12-29T08:21:27;1.50;;;0.70;;
20306;SDS011;10312;52.434;13.206;2022-12-29T08:23:54;1.25;;;0.75;;
20306;SDS011;10312;52.434;13.206;2022-12-29T08:26:21;2.53;;;0.77;;
20306;SDS011;10312;52.434;13.206;2022-12-29T08:28:51;1.88;;;0.80;;
20306;SDS011;10312;52.434;13.206;2022-12-29T08:31:18;1.58;;;0.80;;
20306;SDS011;10312;52.434;13.206;2022-12-29T08:33:45;1.10;;;0.60;;
20306;SDS011;10312;52.434;13.206;2022-12-29T08:36:12;1.27;;;0.70;;
20306;SDS011;10312;52.434;13.206;2022-12-29T08:38:41;3.88;;;0.90;;
20306;SDS011;10312;52.434;13.206;2022-12-29T08:41:08;1.70;;;0.80;;
20306;SDS011;10312;52.434;13.206;2022-12-29T08:43:35;1.92;;;0.98;;
20306;SDS011;10312;52.434;13.206;2022-12-29T08:46:01;1.40;;;0.77;;
20306;SDS011;10312;52.434;13.206;2022-12-29T08:48:28;2.33;;;0.80;;
20306;SDS011;10312;52.434;13.206;2022-12-29T08:50:55;1.25;;;0.90;;
20306;SDS011;10312;52.434;13.206;2022-12-29T08:53:21;3.05;;;0.85;;
20306;SDS011;10312;52.434;13.206;2022-12-29T08:55:54;1.50;;;0.90;;
20306;SDS011;10312;52.434;13.206;2022-12-29T08:58:31;4.13;;;1.70;;
20306;SDS011;10312;52.434;13.206;2022-12-29T09:00:58;1.42;;;0.80;;
20306;SDS011;10312;52.434;13.206;2022-12-29T09:03:26;1.83;;;0.73;;
20306;SDS011;10312;52.434;13.206;2022-12-29T09:06:13;1.90;;;0.98;;
20306;SDS011;10312;52.434;13.206;2022-12-29T09:08:41;1.77;;;0.93;;
20306;SDS011;10312;52.434;13.206;2022-12-29T09:11:12;2.67;;;0.98;;
20306;SDS011;10312;52.434;13.206;2022-12-29T09:13:46;1.98;;;0.80;;
20306;SDS011;10312;52.434;13.206;2022-12-29T09:16:13;1.23;;;0.90;;
20306;SDS011;10312;52.434;13.206;2022-12-29T09:18:41;3.35;;;0.85;;
20306;SDS011;10312;52.434;13.206;2022-12-29T09:21:09;2.38;;;0.90;;
20306;SDS011;10312;52.434;13.206;2022-12-29T09:23:36;1.92;;;0.80;;
20306;SDS011;10312;52.434;13.206;2022-12-29T09:26:03;2.25;;;1.00;;
20306;SDS011;10312;52.434;13.206;2022-12-29T09:28:30;2.40;;;0.82;;
20306;SDS011;10312;52.434;13.206;2022-12-29T09:30:57;1.30;;;0.80;;
20306;SDS011;10312;52.434;13.206;2022-12-29T09:33:25;2.65;;;0.85;;
20306;SDS011;10312;52.434;13.206;2022-12-29T09:35:53;2.28;;;0.80;;
20306;SDS011;10312;52.434;13.206;2022-12-29T09:38:21;3.63;;;1.00;;
20306;SDS011;10312;52.434;13.206;2022-12-29T09:40:53;2.92;;;0.90;;
20306;SDS011;10312;52.434;13.206;2022-12-29T09:48:44;4.53;;;1.00;;
20306;SDS011;10312;52.434;13.206;2022-12-29T09:51:15;1.92;;;0.80;;
20306;SDS011;10312;52.434;13.206;2022-12-29T09:53:50;1.88;;;0.90;;
20306;SDS011;10312;52.434;13.206;2022-12-29T09:56:30;2.42;;;0.80;;
20306;SDS011;10312;52.434;13.206;2022-12-29T09:59:17;2.10;;;0.90;;
20306;SDS011;10312;52.434;13.206;2022-12-29T10:02:12;3.65;;;1.05;;
20306;SDS011;10312;52.434;13.206;2022-12-29T10:04:52;1.25;;;0.73;;
20306;SDS011;10312;52.434;13.206;2022-12-29T10:15:49;1.67;;;0.70;;
20306;SDS011;10312;52.434;13.206;2022-12-29T10:24:19;3.33;;;0.70;;
20306;SDS011;10312;52.434;13.206;2022-12-29T10:26:48;1.98;;;0.70;;
20306;SDS011;10312;52.434;13.206;2022-12-29T10:29:22;2.72;;;1.05;;
20306;SDS011;10312;52.434;13.206;2022-12-29T10:31:58;1.38;;;0.73;;
20306;SDS011;10312;52.434;13.206;2022-12-29T10:34:26;2.03;;;0.93;;
20306;SDS011;10312;52.434;13.206;2022-12-29T10:37:09;2.60;;;0.50;;
20306;SDS011;10312;52.434;13.206;2022-12-29T10:39:43;1.27;;;0.70;;
20306;SDS011;10312;52.434;13.206;2022-12-29T10:42:13;2.70;;;0.75;;
20306;SDS011;10312;52.434;13.206;2022-12-29T10:44:44;2.33;;;0.73;;
20306;SDS011;10312;52.434;13.206;2022-12-29T10:47:15;2.67;;;0.90;;
20306;SDS011;10312;52.434;13.206;2022-12-29T10:49:47;1.60;;;0.80;;
20306;SDS011;10312;52.434;13.206;2022-12-29T10:52:16;4.40;;;0.93;;
20306;SDS011;10312;52.434;13.206;2022-12-29T10:57:36;0.82;;;0.55;;
20306;SDS011;10312;52.434;13.206;2022-12-29T11:02:43;2.15;;;0.70;;
20306;SDS011;10312;52.434;13.206;2022-12-29T11:05:46;3.13;;;0.60;;
20306;SDS011;10312;52.434;13.206;2022-12-29T11:08:22;3.25;;;0.77;;
20306;SDS011;10312;52.434;13.206;2022-12-29T11:10:59;1.25;;;0.70;;
20306;SDS011;10312;52.434;13.206;2022-12-29T11:13:29;3.80;;;0.73;;
20306;SDS011;10312;52.434;13.206;2022-12-29T11:16:04;1.67;;;0.70;;
20306;SDS011;10312;52.434;13.206;2022-12-29T11:21:03;1.92;;;0.68;;
20306;SDS011;10312;52.434;13.206;2022-12-29T11:23:37;1.40;;;0.70;;
20306;SDS011;10312;52.434;13.206;2022-12-29T11:28:37;2.05;;;0.77;;
20306;SDS011;10312;52.434;13.206;2022-12-29T11:31:05;4.07;;;0.80;;
20306;SDS011;10312;52.434;13.206;2022-12-29T11:33:37;1.00;;;0.60;;
20306;SDS011;10312;52.434;13.206;2022-12-29T11:36:13;2.20;;;1.33;;
20306;SDS011;10312;52.434;13.206;2022-12-29T11:38:42;1.75;;;0.73;;
20306;SDS011;10312;52.434;13.206;2022-12-29T11:41:13;1.45;;;0.82;;
20306;SDS011;10312;52.434;13.206;2022-12-29T11:43:46;1.20;;;0.73;;
20306;SDS011;10312;52.434;13.206;2022-12-29T11:46:18;1.45;;;0.60;;
20306;SDS011;10312;52.434;13.206;2022-12-29T11:48:47;2.05;;;0.88;;
20306;SDS011;10312;52.434;13.206;2022-12-29T11:51:22;1.67;;;0.70;;
20306;SDS011;10312;52.434;13.206;2022-12-29T11:54:04;3.05;;;0.80;;
20306;SDS011;10312;52.434;13.206;2022-12-29T11:56:41;2.30;;;0.68;;
20306;SDS011;10312;52.434;13.206;2022-12-29T12:05:14;1.77;;;0.50;;
20306;SDS011;10312;52.434;13.206;2022-12-29T12:07:45;3.88;;;0.68;;
20306;SDS011;10312;52.434;13.206;2022-12-29T12:10:19;1.88;;;0.40;;
20306;SDS011;10312;52.434;13.206;2022-12-29T12:12:57;1.10;;;0.57;;
20306;SDS011;10312;52.434;13.206;2022-12-29T12:15:28;1.70;;;0.60;;
20306;SDS011;10312;52.434;13.206;2022-12-29T12:21:08;1.27;;;0.40;;
20306;SDS011;10312;52.434;13.206;2022-12-29T12:23:53;0.63;;;0.43;;
20306;SDS011;10312;52.434;13.206;2022-12-29T12:26:55;1.30;;;0.60;;
20306;SDS011;10312;52.434;13.206;2022-12-29T12:32:05;2.40;;;0.52;;
20306;SDS011;10312;52.434;13.206;2022-12-29T12:34:45;2.72;;;0.50;;
20306;SDS011;10312;52.434;13.206;2022-12-29T12:42:35;1.55;;;0.50;;
20306;SDS011;10312;52.434;13.206;2022-12-29T12:45:26;1.13;;;0.40;;
20306;SDS011;10312;52.434;13.206;2022-12-29T12:50:55;0.75;;;0.40;;
20306;SDS011;10312;52.434;13.206;2022-12-29T12:56:26;0.73;;;0.40;;
20306;SDS011;10312;52.434;13.206;2022-12-29T12:59:07;2.05;;;0.50;;
20306;SDS011;10312;52.434;13.206;2022-12-29T13:04:27;2.92;;;0.50;;
20306;SDS011;10312;52.434;13.206;2022-12-29T13:07:22;0.50;;;0.40;;
20306;SDS011;10312;52.434;13.206;2022-12-29T13:13:44;1.27;;;0.45;;
20306;SDS011;10312;52.434;13.206;2022-12-29T13:16:11;0.77;;;0.40;;
20306;SDS011;10312;52.434;13.206;2022-12-29T13:18:46;1.13;;;0.40;;
20306;SDS011;10312;52.434;13.206;2022-12-29T13:26:53;3.38;;;1.17;;
20306;SDS011;10312;52.434;13.206;2022-12-29T13:29:32;1.20;;;0.70;;
20306;SDS011;10312;52.434;13.206;2022-12-29T13:35:08;1.98;;;0.73;;
20306;SDS011;10312;52.434;13.206;2022-12-29T13:37:47;2.05;;;0.65;;
20306;SDS011;10312;52.434;13.206;2022-12-29T13:40:18;1.90;;;0.60;;
20306;SDS011;10312;52.434;13.206;2022-12-29T13:42:49;1.70;;;0.77;;
20306;SDS011;10312;52.434;13.206;2022-12-29T13:45:19;2.70;;;0.80;;
20306;SDS011;10312;52.434;13.206;2022-12-29T13:47:49;0.98;;;0.57;;
20306;SDS011;10312;52.434;13.206;2022-12-29T13:50:22;1.63;;;0.80;;
20306;SDS011;10312;52.434;13.206;2022-12-29T13:52:58;1.95;;;0.80;;
20306;SDS011;10312;52.434;13.206;2022-12-29T13:55:34;1.50;;;0.70;;
20306;SDS011;10312;52.434;13.206;2022-12-29T14:06:14;2.20;;;0.88;;
20306;SDS011;10312;52.434;13.206;2022-12-29T14:08:52;1.45;;;1.00;;
20306;SDS011;10312;52.434;13.206;2022-12-29T14:11:22;4.85;;;1.00;;
20306;SDS011;10312;52.434;13.206;2022-12-29T14:13:53;3.55;;;0.90;;
20306;SDS011;10312;52.434;13.206;2022-12-29T14:16:25;2.40;;;0.90;;
20306;SDS011;10312;52.434;13.206;2022-12-29T14:18:53;2.55;;;1.00;;
20306;SDS011;10312;52.434;13.206;2022-12-29T14:21:24;1.88;;;0.90;;
20306;SDS011;10312;52.434;13.206;2022-12-29T14:24:02;2.38;;;0.70;;
20306;SDS011;10312;52.434;13.206;2022-12-29T14:26:52;3.45;;;0.80;;
20306;SDS011;10312;52.434;13.206;2022-12-29T14:31:52;2.75;;;0.98;;
20306;SDS011;10312;52.434;13.206;2022-12-29T14:39:29;3.72;;;1.00;;
20306;SDS011;10312;52.434;13.206;2022-12-29T14:47:18;4.88;;;1.20;;
20306;SDS011;10312;52.434;13.206;2022-12-29T14:49:49;6.22;;;1.80;;
20306;SDS011;10312;52.434;13.206;2022-12-29T14:52:20;5.68;;;1.35;;
20306;SDS011;10312;52.434;13.206;2022-12-29T14:57:21;3.55;;;1.33;;
20306;SDS011;10312;52.434;13.206;2022-12-29T15:00:02;1.85;;;1.00;;
20306;SDS011;10312;52.434;13.206;2022-12-29T15:02:36;2.88;;;1.20;;
20306;SDS011;10312;52.434;13.206;2022-12-29T15:05:20;2.65;;;1.40;;
20306;SDS011;10312;52.434;13.206;2022-12-29T15:07:57;2.33;;;1.17;;
20306;SDS011;10312;52.434;13.206;2022-12-29T15:10:25;4.93;;;1.63;;
20306;SDS011;10312;52.434;13.206;2022-12-29T15:13:00;4.13;;;1.48;;
20306;SDS011;10312;52.434;13.206;2022-12-29T15:15:35;2.35;;;1.13;;
20306;SDS011;10312;52.434;13.206;2022-12-29T15:21:05;2.72;;;0.90;;
20306;SDS011;10312;52.434;13.206;2022-12-29T15:23:33;3.75;;;1.30;;
20306;SDS011;10312;52.434;13.206;2022-12-29T15:26:02;2.88;;;1.05;;
20306;SDS011;10312;52.434;13.206;2022-12-29T15:28:44;2.17;;;1.13;;
20306;SDS011;10312;52.434;13.206;2022-12-29T15:31:16;2.58;;;1.10;;
20306;SDS011;10312;52.434;13.206;2022-12-29T15:34:01;4.07;;;1.40;;
20306;SDS011;10312;52.434;13.206;2022-12-29T15:36:34;3.92;;;1.58;;
20306;SDS011;10312;52.434;13.206;2022-12-29T15:39:20;3.28;;;1.60;;
20306;SDS011;10312;52.434;13.206;2022-12-29T15:44:58;5.47;;;2.10;;
20306;SDS011;10312;52.434;13.206;2022-12-29T15:47:37;4.13;;;2.20;;
20306;SDS011;10312;52.434;13.206;2022-12-29T15:50:06;2.78;;;1.50;;
20306;SDS011;10312;52.434;13.206;2022-12-29T15:52:47;3.65;;;1.60;;
20306;SDS011;10312;52.434;13.206;2022-12-29T15:55:21;3.78;;;1.40;;
20306;SDS011;10312;52.434;13.206;2022-12-29T15:57:57;3.22;;;1.50;;
20306;SDS011;10312;52.434;13.206;2022-12-29T16:00:29;4.53;;;1.67;;
20306;SDS011;10312;52.434;13.206;2022-12-29T16:02:59;3.60;;;1.55;;
20306;SDS011;10312;52.434;13.206;2022-12-29T16:05:31;1.30;;;0.93;;
20306;SDS011;10312;52.434;13.206;2022-12-29T16:08:00;4.07;;;1.25;;
20306;SDS011;10312;52.434;13.206;2022-12-29T16:10:32;3.42;;;1.27;;
20306;SDS011;10312;52.434;13.206;2022-12-29T16:13:03;4.00;;;1.15;;
20306;SDS011;10312;52.434;13.206;2022-12-29T16:15:32;4.55;;;1.10;;
20306;SDS011;10312;52.434;13.206;2022-12-29T16:18:05;3.15;;;1.10;;
20306;SDS011;10312;52.434;13.206;2022-12-29T16:20:35;3.50;;;1.20;;
20306;SDS011;10312;52.434;13.206;2022-12-29T16:23:09;3.75;;;1.08;;
20306;SDS011;10312;52.434;13.206;2022-12-29T16:25:44;3.25;;;1.17;;
20306;SDS011;10312;52.434;13.206;2022-12-29T16:28:21;6.45;;;1.48;;
20306;SDS011;10312;52.434;13.206;2022-12-29T16:31:02;4.68;;;1.65;;
20306;SDS011;10312;52.434;13.206;2022-12-29T16:33:37;3.63;;;0.90;;
20306;SDS011;10312;52.434;13.206;2022-12-29T16:41:49;2.30;;;0.70;;
20306;SDS011;10312;52.434;13.206;2022-12-29T16:44:18;2.00;;;0.57;;
20306;SDS011;10312;52.434;13.206;2022-12-29T16:49:36;4.28;;;0.73;;
20306;SDS011;10312;52.434;13.206;2022-12-29T16:52:16;2.05;;;0.80;;
20306;SDS011;10312;52.434;13.206;2022-12-29T16:54:50;3.95;;;0.85;;
20306;SDS011;10312;52.434;13.206;2022-12-29T16:57:27;2.85;;;1.10;;
20306;SDS011;10312;52.434;13.206;2022-12-29T16:59:56;4.13;;;1.08;;
20306;SDS011;10312;52.434;13.206;2022-12-29T17:02:27;2.92;;;0.90;;
20306;SDS011;10312;52.434;13.206;2022-12-29T17:04:55;2.70;;;0.88;;
20306;SDS011;10312;52.434;13.206;2022-12-29T17:07:23;3.33;;;0.80;;
20306;SDS011;10312;52.434;13.206;2022-12-29T17:09:51;3.20;;;0.80;;
20306;SDS011;10312;52.434;13.206;2022-12-29T17:12:21;3.40;;;0.90;;
20306;SDS011;10312;52.434;13.206;2022-12-29T17:17:32;2.35;;;0.50;;
20306;SDS011;10312;52.434;13.206;2022-12-29T17:20:05;2.38;;;0.40;;
20306;SDS011;10312;52.434;13.206;2022-12-29T17:22:43;3.40;;;0.70;;
20306;SDS011;10312;52.434;13.206;2022-12-29T17:25:17;2.05;;;0.60;;